createdAt,value
2023-04-09T00:01:08.859Z,21.17
2023-04-09T00:03:37.681Z,19.50
2023-04-09T00:06:06.024Z,21.00
2023-04-09T00:08:33.242Z,21.38
2023-04-09T00:11:00.512Z,21.23
2023-04-09T00:13:38.437Z,19.67
2023-04-09T00:16:07.726Z,21.08
2023-04-09T00:18:34.912Z,21.13
2023-04-09T00:21:02.287Z,20.52
2023-04-09T00:23:29.437Z,20.40
2023-04-09T00:25:56.592Z,21.13
2023-04-09T00:28:23.699Z,19.63
2023-04-09T00:30:50.955Z,21.10
2023-04-09T00:33:18.068Z,20.50
2023-04-09T00:35:45.514Z,21.17
2023-04-09T00:38:12.730Z,21.90
2023-04-09T00:40:39.831Z,20.70
2023-04-09T00:43:07.451Z,20.88
2023-04-09T00:45:34.724Z,20.25
2023-04-09T00:48:02.125Z,20.20
2023-04-09T00:50:29.273Z,20.38
2023-04-09T00:52:56.840Z,21.52
2023-04-09T00:55:25.184Z,21.58
2023-04-09T00:57:52.260Z,21.73
2023-04-09T01:00:19.427Z,21.38
2023-04-09T01:02:47.492Z,20.77
2023-04-09T01:05:15.727Z,20.58
2023-04-09T01:08:16.949Z,19.98
2023-04-09T01:10:58.912Z,20.65
2023-04-09T01:14:00.834Z,19.98
2023-04-09T01:16:32.611Z,20.17
2023-04-09T01:19:16.004Z,19.65
2023-04-09T01:21:46.448Z,19.83
2023-04-09T01:24:39.887Z,20.08
2023-04-09T01:27:09.422Z,19.33
2023-04-09T01:29:44.844Z,20.67
2023-04-09T01:32:13.966Z,18.70
2023-04-09T01:34:42.649Z,20.17
2023-04-09T01:37:10.852Z,20.88
2023-04-09T01:39:38.926Z,20.13
2023-04-09T01:42:11.129Z,19.50
2023-04-09T01:44:43.016Z,18.55
2023-04-09T01:47:10.921Z,20.33
2023-04-09T01:49:41.684Z,19.60
2023-04-09T01:52:10.087Z,19.33
2023-04-09T01:54:37.293Z,19.00
2023-04-09T01:57:04.430Z,19.10
2023-04-09T01:59:31.780Z,19.48
2023-04-09T02:02:11.466Z,19.88
2023-04-09T02:04:47.496Z,18.30
2023-04-09T02:07:28.370Z,18.40
2023-04-09T02:09:57.200Z,17.83
2023-04-09T02:12:25.262Z,19.58
2023-04-09T02:14:53.808Z,18.80
2023-04-09T02:17:21.493Z,16.98
2023-04-09T02:19:49.258Z,16.65
2023-04-09T02:22:17.325Z,17.20
2023-04-09T02:24:45.967Z,17.42
2023-04-09T02:27:13.198Z,17.50
2023-04-09T02:29:40.996Z,17.15
2023-04-09T02:32:08.521Z,17.67
2023-04-09T02:34:35.675Z,17.17
2023-04-09T02:37:02.887Z,15.98
2023-04-09T02:39:30.293Z,16.58
2023-04-09T02:41:58.042Z,16.45
2023-04-09T02:44:25.385Z,17.70
2023-04-09T02:46:52.808Z,16.92
2023-04-09T02:49:20.009Z,16.08
2023-04-09T02:51:47.073Z,16.75
2023-04-09T02:54:14.316Z,16.65
2023-04-09T02:56:41.421Z,15.77
2023-04-09T02:59:08.467Z,15.20
2023-04-09T03:01:35.775Z,17.88
2023-04-09T03:04:03.109Z,16.10
2023-04-09T03:06:30.306Z,15.85
2023-04-09T03:08:57.449Z,16.42
2023-04-09T03:11:24.551Z,16.00
2023-04-09T03:13:51.629Z,17.23
2023-04-09T03:16:18.892Z,17.60
2023-04-09T03:18:46.122Z,17.33
2023-04-09T03:21:14.883Z,16.67
2023-04-09T03:23:42.221Z,15.77
2023-04-09T03:26:09.355Z,16.25
2023-04-09T03:28:36.544Z,16.70
2023-04-09T03:31:03.668Z,16.47
2023-04-09T03:33:30.883Z,16.23
2023-04-09T03:35:58.044Z,16.77
2023-04-09T03:38:25.151Z,16.73
2023-04-09T03:40:52.251Z,16.77
2023-04-09T03:43:19.359Z,16.42
2023-04-09T03:45:46.438Z,17.08
2023-04-09T03:48:13.595Z,16.70
2023-04-09T03:50:41.726Z,17.55
2023-04-09T03:53:08.878Z,18.38
2023-04-09T03:55:37.877Z,18.60
2023-04-09T03:58:05.060Z,18.90
2023-04-09T04:00:32.156Z,18.65
2023-04-09T04:02:59.634Z,17.85
2023-04-09T04:05:27.055Z,18.70
2023-04-09T04:07:54.149Z,20.40
2023-04-09T04:10:21.298Z,18.27
2023-04-09T04:12:48.415Z,18.77
2023-04-09T04:15:15.600Z,19.70
2023-04-09T04:17:42.734Z,19.87
2023-04-09T04:20:11.118Z,19.50
2023-04-09T04:22:38.201Z,20.05
2023-04-09T04:25:05.900Z,19.55
2023-04-09T04:27:33.148Z,19.52
2023-04-09T04:30:02.137Z,21.05
2023-04-09T04:32:29.537Z,20.00
2023-04-09T04:34:56.696Z,20.55
2023-04-09T04:37:23.817Z,20.00
2023-04-09T04:39:50.944Z,20.40
2023-04-09T04:42:18.436Z,21.23
2023-04-09T04:44:45.601Z,20.20
2023-04-09T04:47:12.784Z,20.95
2023-04-09T04:49:39.935Z,21.15
2023-04-09T04:52:07.816Z,21.30
2023-04-09T04:54:34.988Z,20.70
2023-04-09T04:57:02.376Z,22.52
2023-04-09T04:59:30.847Z,20.88
2023-04-09T05:01:57.988Z,20.95
2023-04-09T05:04:25.161Z,22.83
2023-04-09T05:06:52.209Z,20.75
2023-04-09T05:09:21.871Z,21.52
2023-04-09T05:11:49.419Z,21.80
2023-04-09T05:14:16.645Z,22.20
2023-04-09T05:16:43.796Z,21.50
2023-04-09T05:19:11.055Z,23.67
2023-04-09T05:21:38.176Z,21.05
2023-04-09T05:24:06.324Z,21.42
2023-04-09T05:26:33.422Z,21.98
2023-04-09T05:29:00.517Z,22.10
2023-04-09T05:31:27.747Z,21.98
2023-04-09T05:33:54.849Z,23.17
2023-04-09T05:36:22.000Z,21.65
2023-04-09T05:38:49.069Z,23.40
2023-04-09T05:41:16.184Z,24.77
2023-04-09T05:43:43.401Z,23.50
2023-04-09T05:46:10.764Z,22.85
2023-04-09T05:48:38.001Z,24.85
2023-04-09T05:51:05.153Z,24.45
2023-04-09T05:53:32.727Z,25.35
2023-04-09T05:55:59.837Z,23.15
2023-04-09T05:58:29.585Z,23.50
2023-04-09T06:00:56.681Z,24.15
2023-04-09T06:03:23.854Z,23.88
2023-04-09T06:05:51.096Z,22.65
2023-04-09T06:08:18.255Z,23.63
2023-04-09T06:10:45.560Z,24.40
2023-04-09T06:13:12.729Z,23.90
2023-04-09T06:15:40.637Z,23.55
2023-04-09T06:18:07.830Z,25.15
2023-04-09T06:20:35.006Z,25.80
2023-04-09T06:23:02.201Z,25.98
2023-04-09T06:25:29.407Z,25.00
2023-04-09T06:27:56.762Z,26.35
2023-04-09T06:30:23.860Z,26.05
2023-04-09T06:32:54.949Z,25.58
2023-04-09T06:35:23.156Z,27.08
2023-04-09T06:37:50.437Z,26.77
2023-04-09T06:40:18.168Z,25.52
2023-04-09T06:42:46.427Z,26.83
2023-04-09T06:45:13.511Z,24.88
2023-04-09T06:47:40.670Z,24.77
2023-04-09T06:50:08.637Z,24.98
2023-04-09T06:52:35.934Z,24.20
2023-04-09T06:55:03.067Z,24.80
2023-04-09T06:57:30.137Z,24.80
2023-04-09T06:59:57.376Z,25.80
2023-04-09T07:02:24.653Z,25.98
2023-04-09T07:04:51.912Z,26.83
2023-04-09T07:07:20.926Z,26.77
2023-04-09T07:09:48.759Z,26.05
2023-04-09T07:12:25.889Z,27.00
2023-04-09T07:14:53.039Z,27.17
2023-04-09T07:17:20.284Z,29.48
2023-04-09T07:19:47.471Z,28.90
2023-04-09T07:22:14.576Z,27.63
2023-04-09T07:24:41.808Z,29.40
2023-04-09T07:27:09.791Z,31.10
2023-04-09T07:29:37.669Z,29.70
2023-04-09T07:32:04.971Z,29.02
2023-04-09T07:34:32.173Z,28.85
2023-04-09T07:36:59.243Z,29.50
2023-04-09T07:39:27.058Z,28.27
2023-04-09T07:41:54.101Z,28.48
2023-04-09T07:44:21.220Z,28.50
2023-04-09T07:46:48.273Z,28.33
2023-04-09T07:49:16.468Z,29.30
2023-04-09T07:51:43.696Z,30.20
2023-04-09T07:54:10.902Z,29.67
2023-04-09T07:56:38.022Z,29.50
2023-04-09T07:59:05.105Z,29.77
2023-04-09T08:01:32.298Z,34.45
2023-04-09T08:03:59.583Z,36.05
2023-04-09T08:06:27.163Z,33.90
2023-04-09T08:08:54.585Z,31.70
2023-04-09T08:11:25.263Z,32.20
2023-04-09T08:13:53.117Z,32.58
2023-04-09T08:16:21.450Z,32.85
2023-04-09T08:18:48.745Z,33.80
2023-04-09T08:21:16.148Z,31.55
2023-04-09T08:23:43.292Z,32.97
2023-04-09T08:26:10.465Z,31.90
2023-04-09T08:28:37.630Z,31.63
2023-04-09T08:31:04.856Z,31.73
2023-04-09T08:33:31.986Z,28.48
2023-04-09T08:35:59.982Z,26.40
2023-04-09T08:38:28.943Z,26.35
2023-04-09T08:40:56.096Z,26.45
2023-04-09T08:43:41.987Z,24.08
2023-04-09T08:46:18.630Z,25.08
2023-04-09T08:48:48.273Z,24.77
2023-04-09T08:51:17.128Z,24.02
2023-04-09T08:54:05.796Z,25.73
2023-04-09T08:56:32.929Z,24.73
2023-04-09T08:59:00.089Z,24.73
2023-04-09T09:01:30.721Z,22.85
2023-04-09T09:03:59.707Z,20.60
2023-04-09T09:06:34.135Z,21.52
2023-04-09T09:09:08.056Z,20.70
2023-04-09T09:11:38.355Z,21.27
2023-04-09T09:14:17.892Z,21.38
2023-04-09T09:16:57.720Z,21.20
2023-04-09T09:19:24.929Z,19.50
2023-04-09T09:22:06.307Z,22.08
2023-04-09T09:24:34.573Z,20.73
2023-04-09T09:27:02.709Z,20.13
2023-04-09T09:29:30.153Z,19.60
2023-04-09T09:31:57.305Z,19.02
2023-04-09T09:34:26.036Z,18.80
2023-04-09T09:36:53.328Z,19.38
2023-04-09T09:39:22.323Z,20.30
2023-04-09T09:42:08.298Z,21.30
2023-04-09T09:44:35.875Z,20.83
2023-04-09T09:47:05.112Z,21.50
2023-04-09T09:49:32.260Z,21.23
2023-04-09T09:52:03.054Z,20.75
2023-04-09T09:54:38.693Z,20.92
2023-04-09T09:57:09.742Z,20.83
2023-04-09T09:59:47.785Z,20.13
2023-04-09T10:02:21.898Z,21.70
2023-04-09T10:04:53.775Z,20.17
2023-04-09T10:07:22.476Z,21.42
2023-04-09T10:09:51.984Z,21.95
2023-04-09T10:12:25.672Z,22.25
2023-04-09T10:14:55.217Z,21.42
2023-04-09T10:17:22.377Z,22.10
2023-04-09T10:20:15.820Z,22.20
2023-04-09T10:22:48.021Z,20.38
2023-04-09T10:25:16.302Z,23.48
2023-04-09T10:27:49.163Z,23.75
2023-04-09T10:30:36.697Z,22.67
2023-04-09T10:33:26.329Z,24.75
2023-04-09T10:35:55.391Z,24.23
2023-04-09T10:38:47.035Z,25.85
2023-04-09T10:41:29.482Z,26.67
2023-04-09T10:43:57.948Z,24.50
2023-04-09T10:46:34.950Z,24.45
2023-04-09T10:49:22.570Z,24.25
2023-04-09T10:52:11.775Z,24.60
2023-04-09T10:54:48.208Z,22.85
2023-04-09T10:59:55.035Z,20.50
2023-04-09T11:02:40.582Z,21.65
2023-04-09T11:05:20.471Z,22.35
2023-04-09T11:08:02.694Z,21.10
2023-04-09T11:10:30.944Z,20.92
2023-04-09T11:12:58.190Z,19.50
2023-04-09T11:15:25.319Z,21.92
2023-04-09T11:17:52.651Z,19.02
2023-04-09T11:20:25.522Z,19.45
2023-04-09T11:22:55.852Z,18.92
2023-04-09T11:25:26.695Z,19.73
2023-04-09T11:27:54.182Z,20.92
2023-04-09T11:30:21.579Z,21.10
2023-04-09T11:32:50.144Z,21.05
2023-04-09T11:35:21.080Z,21.48
2023-04-09T11:37:50.853Z,21.05
2023-04-09T11:40:20.281Z,21.85
2023-04-09T11:42:51.207Z,19.83
2023-04-09T11:45:20.519Z,20.42
2023-04-09T11:47:48.048Z,19.10
2023-04-09T11:50:16.583Z,17.15
2023-04-09T11:52:45.831Z,17.02
2023-04-09T11:55:22.619Z,17.80
2023-04-09T11:57:53.967Z,16.67
2023-04-09T12:00:21.688Z,17.35
2023-04-09T12:02:50.610Z,14.73
2023-04-09T12:05:30.703Z,14.35
2023-04-09T12:08:05.100Z,14.75
2023-04-09T12:10:37.321Z,13.63
2023-04-09T12:13:11.444Z,14.07
2023-04-09T12:15:43.370Z,14.00
2023-04-09T12:18:14.011Z,13.68
2023-04-09T12:20:47.826Z,12.50
2023-04-09T12:23:16.008Z,13.70
2023-04-09T12:25:45.394Z,14.52
2023-04-09T12:28:15.906Z,15.00
2023-04-09T12:30:43.835Z,16.33
2023-04-09T12:33:11.585Z,16.67
2023-04-09T12:35:39.321Z,16.15
2023-04-09T12:38:06.516Z,16.02
2023-04-09T12:40:33.890Z,15.95
2023-04-09T12:43:01.519Z,18.08
2023-04-09T12:45:29.872Z,18.27
2023-04-09T12:47:57.346Z,19.67
2023-04-09T12:50:24.656Z,18.60
2023-04-09T12:52:51.766Z,19.60
2023-04-09T12:55:19.024Z,19.80
2023-04-09T12:57:47.331Z,18.80
2023-04-09T13:00:15.741Z,17.17
2023-04-09T13:02:43.092Z,17.73
2023-04-09T13:05:10.603Z,17.52
2023-04-09T13:07:37.750Z,19.23
2023-04-09T13:10:05.422Z,18.35
2023-04-09T13:12:33.012Z,18.45
2023-04-09T13:15:00.370Z,18.60
2023-04-09T13:17:27.516Z,17.80
2023-04-09T13:19:54.672Z,18.30
2023-04-09T13:22:21.793Z,19.90
2023-04-09T13:24:48.865Z,18.77
2023-04-09T13:27:16.665Z,19.10
2023-04-09T13:29:43.816Z,19.65
2023-04-09T13:32:11.416Z,20.33
2023-04-09T13:34:39.904Z,20.33
2023-04-09T13:37:07.538Z,18.90
2023-04-09T13:39:34.723Z,20.25
2023-04-09T13:42:07.211Z,20.45
2023-04-09T13:44:45.488Z,20.73
2023-04-09T13:47:14.596Z,22.88
2023-04-09T13:49:43.682Z,21.63
2023-04-09T13:52:11.718Z,23.10
2023-04-09T13:54:38.881Z,21.30
2023-04-09T13:57:06.160Z,21.90
2023-04-09T13:59:33.261Z,23.70
2023-04-09T14:02:00.839Z,23.00
2023-04-09T14:04:28.070Z,21.08
2023-04-09T14:06:55.221Z,21.25
2023-04-09T14:09:22.294Z,22.10
2023-04-09T14:11:49.695Z,20.77
2023-04-09T14:14:17.795Z,23.15
2023-04-09T14:16:44.897Z,22.13
2023-04-09T14:19:11.962Z,22.00
2023-04-09T14:21:40.469Z,18.10
2023-04-09T14:24:07.837Z,16.73
2023-04-09T14:26:35.078Z,17.30
2023-04-09T14:29:02.322Z,16.75
2023-04-09T14:31:29.550Z,15.00
2023-04-09T14:33:57.060Z,15.02
2023-04-09T14:36:25.133Z,14.82
2023-04-09T14:38:53.004Z,15.52
2023-04-09T14:41:21.950Z,14.23
2023-04-09T14:43:51.730Z,15.60
2023-04-09T14:46:20.318Z,15.32
2023-04-09T14:48:47.472Z,15.25
2023-04-09T14:51:14.725Z,13.57
2023-04-09T14:53:42.579Z,14.45
2023-04-09T14:56:09.773Z,12.95
2023-04-09T14:58:37.337Z,13.25
2023-04-09T15:01:04.739Z,11.82
2023-04-09T15:03:32.060Z,11.52
2023-04-09T15:05:59.829Z,11.60
2023-04-09T15:08:27.026Z,10.95
2023-04-09T15:10:54.626Z,10.27
2023-04-09T15:13:21.769Z,10.57
2023-04-09T15:15:49.098Z,10.70
2023-04-09T15:18:16.528Z,11.50
2023-04-09T15:20:43.680Z,10.82
2023-04-09T15:23:11.276Z,10.57
2023-04-09T15:25:39.308Z,9.15
2023-04-09T15:28:06.961Z,10.23
2023-04-09T15:30:35.526Z,13.55
2023-04-09T15:33:02.768Z,13.43
2023-04-09T15:35:30.600Z,13.52
2023-04-09T15:37:57.891Z,12.73
2023-04-09T15:40:25.319Z,12.10
2023-04-09T15:42:52.583Z,14.30
2023-04-09T15:45:19.895Z,14.75
2023-04-09T15:47:47.614Z,14.95
2023-04-09T15:50:15.606Z,13.45
2023-04-09T15:52:42.727Z,13.05
2023-04-09T15:55:10.325Z,12.48
2023-04-09T15:57:38.658Z,14.10
2023-04-09T16:00:10.837Z,14.30
2023-04-09T16:02:38.988Z,13.45
2023-04-09T16:05:07.278Z,13.23
2023-04-09T16:07:34.671Z,12.55
2023-04-09T16:10:02.191Z,11.18
2023-04-09T16:12:29.353Z,11.30
2023-04-09T16:14:56.507Z,12.05
2023-04-09T16:17:24.034Z,12.45
2023-04-09T16:19:51.291Z,12.30
2023-04-09T16:22:18.361Z,12.30
2023-04-09T16:24:45.718Z,11.02
2023-04-09T16:27:14.490Z,12.00
2023-04-09T16:29:41.607Z,11.55
2023-04-09T16:32:08.781Z,11.98
2023-04-09T16:34:35.987Z,11.80
2023-04-09T16:37:03.168Z,11.57
2023-04-09T16:39:30.427Z,10.80
2023-04-09T16:41:58.379Z,10.57
2023-04-09T16:44:26.233Z,10.48
2023-04-09T16:46:53.366Z,10.75
2023-04-09T16:49:20.431Z,11.55
2023-04-09T16:51:47.686Z,11.32
2023-04-09T16:54:14.849Z,10.70
2023-04-09T16:56:42.010Z,10.52
2023-04-09T16:59:09.092Z,10.30
2023-04-09T17:01:36.276Z,9.98
2023-04-09T17:04:03.791Z,10.30
2023-04-09T17:06:31.007Z,10.43
2023-04-09T17:08:58.088Z,10.13
2023-04-09T17:11:25.383Z,10.50
2023-04-09T17:13:52.537Z,10.77
2023-04-09T17:16:19.708Z,10.73
2023-04-09T17:18:47.142Z,9.68
2023-04-09T17:21:14.260Z,11.65
2023-04-09T17:23:42.578Z,11.77
2023-04-09T17:26:09.710Z,11.90
2023-04-09T17:28:36.814Z,12.35
2023-04-09T17:31:04.232Z,12.90
2023-04-09T17:33:31.883Z,12.80
2023-04-09T17:35:59.897Z,12.73
2023-04-09T17:38:27.097Z,12.13
2023-04-09T17:40:54.256Z,11.57
2023-04-09T17:43:21.386Z,10.95
2023-04-09T17:45:49.311Z,12.10
2023-04-09T17:48:16.688Z,11.00
2023-04-09T17:50:43.854Z,12.20
2023-04-09T17:53:11.622Z,11.40
2023-04-09T17:55:38.841Z,12.38
2023-04-09T17:58:05.923Z,12.70
2023-04-09T18:00:34.403Z,12.10
2023-04-09T18:03:01.803Z,12.95
2023-04-09T18:05:29.279Z,12.23
2023-04-09T18:07:56.843Z,13.98
2023-04-09T18:10:24.089Z,14.02
2023-04-09T18:12:51.916Z,14.15
2023-04-09T18:15:19.267Z,13.32
2023-04-09T18:17:46.546Z,14.20
2023-04-09T18:20:15.517Z,12.70
2023-04-09T18:22:43.818Z,14.05
2023-04-09T18:25:11.533Z,14.13
2023-04-09T18:27:38.698Z,13.27
2023-04-09T18:30:06.805Z,14.32
2023-04-09T18:32:34.021Z,14.88
2023-04-09T18:35:01.222Z,16.02
2023-04-09T18:37:28.397Z,15.20
2023-04-09T18:39:55.481Z,15.93
2023-04-09T18:42:22.730Z,16.45
2023-04-09T18:44:49.873Z,16.25
2023-04-09T18:47:17.224Z,16.25
2023-04-09T18:49:44.578Z,16.30
2023-04-09T18:52:11.924Z,14.57
2023-04-09T18:54:39.173Z,14.90
2023-04-09T18:57:06.921Z,14.70
2023-04-09T18:59:35.347Z,13.30
2023-04-09T19:02:06.254Z,14.55
2023-04-09T19:04:39.811Z,15.05
2023-04-09T19:07:07.786Z,13.27
2023-04-09T19:09:37.542Z,15.23
2023-04-09T19:12:05.515Z,15.45
2023-04-09T19:14:32.668Z,14.05
2023-04-09T19:16:59.930Z,14.18
2023-04-09T19:19:29.123Z,13.43
2023-04-09T19:21:56.661Z,13.07
2023-04-09T19:24:25.137Z,14.15
2023-04-09T19:26:55.050Z,13.35
2023-04-09T19:29:22.217Z,13.05
2023-04-09T19:31:49.418Z,12.27
2023-04-09T19:34:17.021Z,13.30
2023-04-09T19:36:44.226Z,12.77
2023-04-09T19:39:11.940Z,11.93
2023-04-09T19:41:39.647Z,12.95
2023-04-09T19:44:09.068Z,12.45
2023-04-09T19:46:36.480Z,12.50
2023-04-09T19:49:03.645Z,13.15
2023-04-09T19:51:30.791Z,14.02
2023-04-09T19:53:57.951Z,13.25
2023-04-09T19:56:25.656Z,13.32
2023-04-09T19:58:53.184Z,12.35
2023-04-09T20:01:20.519Z,12.27
2023-04-09T20:03:48.273Z,11.93
2023-04-09T20:06:15.817Z,13.85
2023-04-09T20:08:42.999Z,13.70
2023-04-09T20:11:17.309Z,13.57
2023-04-09T20:13:44.562Z,13.50
2023-04-09T20:16:11.736Z,12.45
2023-04-09T20:18:41.662Z,13.13
2023-04-09T20:21:08.915Z,13.63
2023-04-09T20:23:36.545Z,13.20
2023-04-09T20:26:03.683Z,13.68
2023-04-09T20:28:30.795Z,13.63
2023-04-09T20:30:57.907Z,14.98
2023-04-09T20:33:25.042Z,13.95
2023-04-09T20:35:53.178Z,13.07
2023-04-09T20:38:21.593Z,14.88
2023-04-09T20:40:48.706Z,14.77
2023-04-09T20:43:15.873Z,12.98
2023-04-09T20:45:43.039Z,15.00
2023-04-09T20:48:10.330Z,14.68
2023-04-09T20:50:37.675Z,13.82
2023-04-09T20:53:04.847Z,14.32
2023-04-09T20:55:31.914Z,13.90
2023-04-09T20:58:00.230Z,14.90
2023-04-09T21:00:27.594Z,15.05
2023-04-09T21:02:54.970Z,15.27
2023-04-09T21:05:23.860Z,14.40
2023-04-09T21:07:53.003Z,14.85
2023-04-09T21:10:20.916Z,15.25
2023-04-09T21:12:48.256Z,14.88
2023-04-09T21:15:15.906Z,15.57
2023-04-09T21:17:43.106Z,14.23
2023-04-09T21:20:11.962Z,15.57
2023-04-09T21:22:39.084Z,14.70
2023-04-09T21:25:06.930Z,14.57
2023-04-09T21:27:34.078Z,15.88
2023-04-09T21:30:01.193Z,14.63
2023-04-09T21:32:28.365Z,15.40
2023-04-09T21:34:55.445Z,16.55
2023-04-09T21:37:22.685Z,16.10
2023-04-09T21:39:50.082Z,15.50
2023-04-09T21:42:17.245Z,16.80
2023-04-09T21:44:44.399Z,15.90
2023-04-09T21:47:12.331Z,16.15
2023-04-09T21:49:40.660Z,15.73
2023-04-09T21:52:14.446Z,15.80
2023-04-09T21:54:45.526Z,15.82
2023-04-09T21:57:12.697Z,16.42
2023-04-09T21:59:41.475Z,15.88
2023-04-09T22:02:09.561Z,15.18
2023-04-09T22:04:36.916Z,16.58
2023-04-09T22:07:04.364Z,15.35
2023-04-09T22:09:31.638Z,15.80
2023-04-09T22:11:59.734Z,15.43
2023-04-09T22:14:29.440Z,15.82
2023-04-09T22:16:58.330Z,15.57
2023-04-09T22:19:26.591Z,15.73
2023-04-09T22:21:54.408Z,16.70
2023-04-09T22:24:30.287Z,16.90
2023-04-09T22:26:59.218Z,16.23
2023-04-09T22:29:27.751Z,18.10
2023-04-09T22:31:55.877Z,16.83
2023-04-09T22:34:23.001Z,17.50
2023-04-09T22:36:50.758Z,17.88
2023-04-09T22:39:17.986Z,17.58
2023-04-09T22:41:45.055Z,16.45
2023-04-09T22:44:12.223Z,17.23
2023-04-09T22:46:39.373Z,17.17
2023-04-09T22:49:06.635Z,18.30
2023-04-09T22:51:37.281Z,16.70
2023-04-09T22:54:05.746Z,17.00
2023-04-09T22:56:33.593Z,17.08
2023-04-09T22:59:00.838Z,16.27
2023-04-09T23:01:28.868Z,16.15
2023-04-09T23:03:56.387Z,15.65
2023-04-09T23:06:25.474Z,17.10
2023-04-09T23:08:52.981Z,17.55
2023-04-09T23:11:21.227Z,16.00
2023-04-09T23:13:48.426Z,15.50
2023-04-09T23:16:15.547Z,16.35
2023-04-09T23:18:42.667Z,15.90
2023-04-09T23:21:10.989Z,16.52
2023-04-09T23:23:39.107Z,16.67
2023-04-09T23:26:06.957Z,16.98
2023-04-09T23:28:34.133Z,17.38
2023-04-09T23:31:01.335Z,16.38
2023-04-09T23:33:28.489Z,16.35
2023-04-09T23:35:55.737Z,17.45
2023-04-09T23:38:22.949Z,15.40
2023-04-09T23:40:50.109Z,16.25
2023-04-09T23:43:17.221Z,15.75
2023-04-09T23:45:44.769Z,15.88
2023-04-09T23:48:12.658Z,16.35
2023-04-09T23:50:41.573Z,15.68
2023-04-09T23:53:09.157Z,16.08
2023-04-09T23:55:41.406Z,17.38
2023-04-09T23:58:09.841Z,16.92
